Time,TemperatureF,DewpointF,PressureIn,WindDirection,WindDirectionDegrees,WindSpeedMPH,WindSpeedGustMPH,Humidity,HourlyPrecipIn,Conditions,Clouds,dailyrainin,SoftwareType,DateUTC
2013-11-24 00:01:00,21.2,12.0,29.96,NNW,338,1.1,9.2,67,0.00,,,0.00,WUHU216HW,2013-11-24 05:01:00,
2013-11-24 00:02:00,21.2,12.2,29.96,WNW,293,0.9,9.2,68,0.00,,,0.00,WUHU216HW,2013-11-24 05:02:00,
2013-11-24 00:07:00,21.1,11.8,29.96,NW,315,3.6,10.1,67,0.00,,,0.00,WUHU216HW,2013-11-24 05:07:00,
2013-11-24 00:12:00,20.9,11.9,29.96,NNE,23,2.7,10.1,68,0.00,,,0.00,WUHU216HW,2013-11-24 05:12:00,
2013-11-24 00:17:00,20.9,11.6,29.96,NW,315,4.9,10.1,67,0.00,,,0.00,WUHU216HW,2013-11-24 05:17:00,
2013-11-24 00:22:00,20.9,11.3,29.96,NW,315,5.4,9.2,66,0.00,,,0.00,WUHU216HW,2013-11-24 05:22:00,
2013-11-24 00:27:00,20.7,11.4,29.96,WSW,248,6.3,9.2,67,0.00,,,0.00,WUHU216HW,2013-11-24 05:27:00,
2013-11-24 00:32:00,20.7,11.4,29.96,NW,315,2.2,9.2,67,0.00,,,0.00,WUHU216HW,2013-11-24 05:32:00,
2013-11-24 00:37:00,20.7,11.4,29.96,NNW,338,1.6,9.2,67,0.00,,,0.00,WUHU216HW,2013-11-24 05:37:00,
2013-11-24 00:42:00,20.9,11.6,29.96,NW,315,0.4,8.5,67,0.00,,,0.00,WUHU216HW,2013-11-24 05:42:00,
2013-11-24 00:47:00,20.7,11.1,29.96,WNW,293,3.4,8.5,66,0.00,,,0.00,WUHU216HW,2013-11-24 05:47:00,
2013-11-24 00:52:00,20.9,11.6,29.96,NNW,338,1.6,4.7,67,0.00,,,0.00,WUHU216HW,2013-11-24 05:52:00,
2013-11-24 00:57:00,20.3,9.0,29.96,NNW,338,4.7,11.0,61,0.00,,,0.00,WUHU216HW,2013-11-24 05:57:00,
2013-11-24 01:02:00,20.2,9.2,29.96,WNW,293,3.8,11.0,62,0.00,,,0.00,WUHU216HW,2013-11-24 06:02:00,
2013-11-24 01:07:00,20.0,8.7,29.96,NE,45,2.5,5.6,61,0.00,,,0.00,WUHU216HW,2013-11-24 06:07:00,
2013-11-24 01:12:00,19.8,8.5,29.97,West,270,4.5,5.6,61,0.00,,,0.00,WUHU216HW,2013-11-24 06:12:00,
2013-11-24 01:17:00,19.8,8.8,29.96,NW,315,1.8,6.9,62,0.00,,,0.00,WUHU216HW,2013-11-24 06:17:00,
2013-11-24 01:22:00,19.8,9.5,29.96,East,90,1.8,7.4,64,0.00,,,0.00,WUHU216HW,2013-11-24 06:22:00,
2013-11-24 01:27:00,19.6,8.9,29.96,WNW,293,7.2,12.1,63,0.00,,,0.00,WUHU216HW,2013-11-24 06:27:00,
2013-11-24 01:32:00,19.4,9.5,29.96,North,0,2.9,12.1,65,0.00,,,0.00,WUHU216HW,2013-11-24 06:32:00,
2013-11-24 01:37:00,19.3,9.3,29.97,NW,315,5.1,8.3,65,0.00,,,0.00,WUHU216HW,2013-11-24 06:37:00,
2013-11-24 01:42:00,19.3,9.3,29.97,NW,315,2.7,7.8,65,0.00,,,0.00,WUHU216HW,2013-11-24 06:42:00,
2013-11-24 01:47:00,19.1,8.1,29.97,WNW,293,5.4,9.2,62,0.00,,,0.00,WUHU216HW,2013-11-24 06:47:00,
2013-11-24 01:52:00,19.1,8.1,29.97,NW,315,3.6,9.8,62,0.00,,,0.00,WUHU216HW,2013-11-24 06:52:00,
2013-11-24 01:57:00,19.1,8.1,29.98,WNW,293,0.9,9.8,62,0.00,,,0.00,WUHU216HW,2013-11-24 06:57:00,
2013-11-24 02:02:00,18.7,7.1,29.98,NNW,338,7.6,8.7,60,0.00,,,0.00,WUHU216HW,2013-11-24 07:02:00,
2013-11-24 02:07:00,18.5,6.6,29.98,NW,315,6.9,8.7,59,0.00,,,0.00,WUHU216HW,2013-11-24 07:07:00,
2013-11-24 02:12:00,18.5,7.3,29.98,North,0,3.4,7.6,61,0.00,,,0.00,WUHU216HW,2013-11-24 07:12:00,
2013-11-24 02:17:00,18.7,7.5,29.99,SSE,158,0.2,6.9,61,0.00,,,0.00,WUHU216HW,2013-11-24 07:17:00,
2013-11-24 02:22:00,18.5,7.3,29.99,ESE,113,1.6,5.4,61,0.00,,,0.00,WUHU216HW,2013-11-24 07:22:00,
2013-11-24 02:27:00,18.5,7.3,29.99,NW,315,5.4,6.3,61,0.00,,,0.00,WUHU216HW,2013-11-24 07:27:00,
2013-11-24 02:32:00,18.4,7.1,29.99,NNW,338,5.4,8.1,61,0.00,,,0.00,WUHU216HW,2013-11-24 07:32:00,
2013-11-24 02:37:00,18.4,7.1,29.99,NE,45,1.8,8.1,61,0.00,,,0.00,WUHU216HW,2013-11-24 07:37:00,
2013-11-24 02:42:00,18.4,7.5,29.99,NNW,338,3.1,7.2,62,0.00,,,0.00,WUHU216HW,2013-11-24 07:42:00,
2013-11-24 02:47:00,18.4,7.1,29.99,NW,315,7.4,9.4,61,0.00,,,0.00,WUHU216HW,2013-11-24 07:47:00,
2013-11-24 02:52:00,18.4,7.8,29.99,NW,315,3.4,9.4,63,0.00,,,0.00,WUHU216HW,2013-11-24 07:52:00,
2013-11-24 02:57:00,18.4,7.8,29.98,SE,135,0.4,9.2,63,0.00,,,0.00,WUHU216HW,2013-11-24 07:57:00,
2013-11-24 03:02:00,18.5,8.3,29.99,ENE,68,1.1,3.6,64,0.00,,,0.00,WUHU216HW,2013-11-24 08:02:00,
2013-11-24 03:07:00,18.5,8.3,29.99,SW,225,0.7,3.6,64,0.00,,,0.00,WUHU216HW,2013-11-24 08:07:00,
2013-11-24 03:12:00,18.4,7.1,29.99,NNW,338,5.1,11.4,61,0.00,,,0.00,WUHU216HW,2013-11-24 08:12:00,
2013-11-24 03:17:00,18.2,7.7,29.99,NW,315,6.3,11.4,63,0.00,,,0.00,WUHU216HW,2013-11-24 08:17:00,
2013-11-24 03:22:00,18.0,6.8,29.99,NW,315,5.8,7.6,61,0.00,,,0.00,WUHU216HW,2013-11-24 08:22:00,
2013-11-24 03:27:00,18.0,7.5,29.99,NW,315,4.7,9.4,63,0.00,,,0.00,WUHU216HW,2013-11-24 08:27:00,
2013-11-24 03:32:00,17.8,6.7,29.99,NW,315,9.2,10.5,61,0.00,,,0.00,WUHU216HW,2013-11-24 08:32:00,
2013-11-24 03:37:00,17.6,6.5,30.00,NW,315,5.4,11.4,61,0.00,,,0.00,WUHU216HW,2013-11-24 08:37:00,
2013-11-24 03:42:00,17.5,6.3,30.00,NNW,338,7.6,11.4,61,0.00,,,0.00,WUHU216HW,2013-11-24 08:42:00,
2013-11-24 03:47:00,17.3,5.4,30.00,NNW,338,4.9,9.8,59,0.00,,,0.00,WUHU216HW,2013-11-24 08:47:00,
2013-11-24 03:52:00,16.9,5.4,30.00,WNW,293,1.8,9.6,60,0.00,,,0.00,WUHU216HW,2013-11-24 08:52:00,
2013-11-24 03:57:00,16.9,5.8,29.99,NNW,338,6.7,14.8,61,0.00,,,0.00,WUHU216HW,2013-11-24 08:57:00,
2013-11-24 04:02:00,16.9,5.8,29.99,NW,315,5.4,14.8,61,0.00,,,0.00,WUHU216HW,2013-11-24 09:02:00,
2013-11-24 04:07:00,16.9,5.8,29.99,West,270,6.3,14.3,61,0.00,,,0.00,WUHU216HW,2013-11-24 09:07:00,
2013-11-24 04:12:00,16.9,5.8,29.99,NNW,338,3.8,14.3,61,0.00,,,0.00,WUHU216HW,2013-11-24 09:12:00,
2013-11-24 04:17:00,16.9,6.4,29.99,NW,315,4.0,6.7,63,0.00,,,0.00,WUHU216HW,2013-11-24 09:17:00,
2013-11-24 04:22:00,16.9,5.8,29.99,WNW,293,9.6,11.4,61,0.00,,,0.00,WUHU216HW,2013-11-24 09:22:00,
2013-11-24 04:27:00,16.9,6.1,29.99,West,270,7.4,11.6,62,0.00,,,0.00,WUHU216HW,2013-11-24 09:27:00,
2013-11-24 04:32:00,16.7,5.6,30.00,NNW,338,3.8,11.6,61,0.00,,,0.00,WUHU216HW,2013-11-24 09:32:00,
2013-11-24 04:37:00,16.6,5.8,30.00,NNW,338,4.5,15.0,62,0.00,,,0.00,WUHU216HW,2013-11-24 09:37:00,
2013-11-24 04:42:00,16.2,5.1,30.00,NW,315,6.5,15.0,61,0.00,,,0.00,WUHU216HW,2013-11-24 09:42:00,
2013-11-24 04:47:00,16.2,5.4,30.00,NE,45,3.4,14.3,62,0.00,,,0.00,WUHU216HW,2013-11-24 09:47:00,
2013-11-24 04:52:00,16.2,5.4,30.00,NNW,338,4.3,14.3,62,0.00,,,0.00,WUHU216HW,2013-11-24 09:52:00,
2013-11-24 04:57:00,16.2,5.7,30.00,NW,315,6.5,8.9,63,0.00,,,0.00,WUHU216HW,2013-11-24 09:57:00,
2013-11-24 05:02:00,16.2,5.4,30.00,NW,315,8.9,8.9,62,0.00,,,0.00,WUHU216HW,2013-11-24 10:02:00,
2013-11-24 05:07:00,16.2,6.0,30.01,NW,315,1.1,10.5,64,0.00,,,0.00,WUHU216HW,2013-11-24 10:07:00,
2013-11-24 05:12:00,16.2,6.0,30.01,NNW,338,6.0,10.5,64,0.00,,,0.00,WUHU216HW,2013-11-24 10:12:00,
2013-11-24 05:17:00,16.2,5.4,30.01,NNW,338,6.0,10.3,62,0.00,,,0.00,WUHU216HW,2013-11-24 10:17:00,
2013-11-24 05:22:00,16.0,4.9,30.01,NW,315,6.0,10.3,61,0.00,,,0.00,WUHU216HW,2013-11-24 10:22:00,
2013-11-24 05:27:00,15.8,4.7,30.02,NNW,338,10.3,10.3,61,0.00,,,0.00,WUHU216HW,2013-11-24 10:27:00,
2013-11-24 05:32:00,16.0,5.5,30.02,NNW,338,4.7,10.3,63,0.00,,,0.00,WUHU216HW,2013-11-24 10:32:00,
2013-11-24 05:37:00,15.8,5.1,30.02,NNW,338,2.5,10.3,62,0.00,,,0.00,WUHU216HW,2013-11-24 10:37:00,
2013-11-24 05:42:00,15.8,5.1,30.02,NNW,338,5.4,15.0,62,0.00,,,0.00,WUHU216HW,2013-11-24 10:42:00,
2013-11-24 05:47:00,15.8,5.3,30.02,NW,315,2.2,15.0,63,0.00,,,0.00,WUHU216HW,2013-11-24 10:47:00,
2013-11-24 05:52:00,15.8,5.3,30.02,ENE,68,2.2,5.4,63,0.00,,,0.00,WUHU216HW,2013-11-24 10:52:00,
2013-11-24 05:57:00,15.7,4.9,30.02,NW,315,4.3,7.8,62,0.00,,,0.00,WUHU216HW,2013-11-24 10:57:00,
2013-11-24 06:02:00,15.7,4.9,30.03,West,270,3.8,7.8,62,0.00,,,0.00,WUHU216HW,2013-11-24 11:02:00,
2013-11-24 06:07:00,15.5,4.7,30.02,WNW,293,4.7,10.1,62,0.00,,,0.00,WUHU216HW,2013-11-24 11:07:00,
2013-11-24 06:12:00,15.5,4.3,30.03,North,0,4.7,10.1,61,0.00,,,0.00,WUHU216HW,2013-11-24 11:12:00,
2013-11-24 06:17:00,15.5,4.7,30.03,WNW,293,5.6,8.9,62,0.00,,,0.00,WUHU216HW,2013-11-24 11:17:00,
2013-11-24 06:22:00,15.3,4.5,30.03,WNW,293,8.9,15.9,62,0.00,,,0.00,WUHU216HW,2013-11-24 11:22:00,
2013-11-24 06:27:00,15.3,4.1,30.03,WSW,248,1.8,15.9,61,0.00,,,0.00,WUHU216HW,2013-11-24 11:27:00,
2013-11-24 06:32:00,15.1,4.1,30.04,NW,315,6.9,10.7,61,0.00,,,0.00,WUHU216HW,2013-11-24 11:32:00,
2013-11-24 06:37:00,14.9,3.5,30.04,NW,315,13.0,13.0,60,0.00,,,0.00,WUHU216HW,2013-11-24 11:37:00,
2013-11-24 06:42:00,14.9,4.2,30.04,NNE,23,1.1,13.0,62,0.00,,,0.00,WUHU216HW,2013-11-24 11:42:00,
2013-11-24 06:47:00,14.9,4.5,30.04,NNW,338,7.8,13.0,63,0.00,,,0.00,WUHU216HW,2013-11-24 11:47:00,
2013-11-24 06:52:00,14.9,4.9,30.04,NW,315,3.4,10.3,64,0.00,,,0.00,WUHU216HW,2013-11-24 11:52:00,
2013-11-24 06:57:00,14.8,4.4,30.04,NNW,338,5.4,7.8,63,0.00,,,0.00,WUHU216HW,2013-11-24 11:57:00,
2013-11-24 07:02:00,14.8,4.4,30.05,NW,315,0.9,7.6,63,0.00,,,0.00,WUHU216HW,2013-11-24 12:02:00,
2013-11-24 07:07:00,14.8,4.7,30.05,NW,315,6.0,9.2,64,0.00,,,0.00,WUHU216HW,2013-11-24 12:07:00,
2013-11-24 07:12:00,14.6,4.9,30.05,NW,315,3.8,9.2,65,0.00,,,0.00,WUHU216HW,2013-11-24 12:12:00,
2013-11-24 07:17:00,14.6,4.6,30.06,NNW,338,4.0,7.6,64,0.00,,,0.00,WUHU216HW,2013-11-24 12:17:00,
2013-11-24 07:22:00,14.4,4.4,30.05,ENE,68,0.2,8.9,64,0.00,,,0.00,WUHU216HW,2013-11-24 12:22:00,
2013-11-24 07:27:00,14.4,4.8,30.06,NE,45,0.0,8.9,65,0.00,,,0.00,WUHU216HW,2013-11-24 12:27:00,
2013-11-24 07:32:00,14.8,5.0,30.06,NNW,338,6.7,12.1,65,0.00,,,0.00,WUHU216HW,2013-11-24 12:32:00,
2013-11-24 07:37:00,14.9,5.2,30.06,NW,315,9.8,12.1,65,0.00,,,0.00,WUHU216HW,2013-11-24 12:37:00,
2013-11-24 07:42:00,14.8,4.7,30.06,North,0,4.7,9.8,64,0.00,,,0.00,WUHU216HW,2013-11-24 12:42:00,
2013-11-24 07:47:00,14.6,4.6,30.06,ENE,68,4.0,9.8,64,0.00,,,0.00,WUHU216HW,2013-11-24 12:47:00,
2013-11-24 07:52:00,14.6,4.9,30.07,NNW,338,12.8,14.5,65,0.00,,,0.00,WUHU216HW,2013-11-24 12:52:00,
2013-11-24 07:57:00,14.6,4.9,30.07,WNW,293,3.8,14.5,65,0.00,,,0.00,WUHU216HW,2013-11-24 12:57:00,
2013-11-24 08:02:00,14.8,5.4,30.07,NNW,338,4.0,12.8,66,0.00,,,0.00,WUHU216HW,2013-11-24 13:02:00,
2013-11-24 08:07:00,14.8,4.7,30.07,NW,315,4.5,7.6,64,0.00,,,0.00,WUHU216HW,2013-11-24 13:07:00,
2013-11-24 08:12:00,14.8,5.0,30.07,NW,315,3.1,7.6,65,0.00,,,0.00,WUHU216HW,2013-11-24 13:12:00,
2013-11-24 08:17:00,14.8,5.0,30.08,NW,315,8.1,8.5,65,0.00,,,0.00,WUHU216HW,2013-11-24 13:17:00,
2013-11-24 08:22:00,14.6,4.6,30.08,NW,315,3.4,8.5,64,0.00,,,0.00,WUHU216HW,2013-11-24 13:22:00,
2013-11-24 08:27:00,14.4,4.8,30.08,NW,315,6.0,8.7,65,0.00,,,0.00,WUHU216HW,2013-11-24 13:27:00,
2013-11-24 08:32:00,14.6,4.9,30.08,NW,315,6.0,9.4,65,0.00,,,0.00,WUHU216HW,2013-11-24 13:32:00,
2013-11-24 08:37:00,14.6,4.6,30.08,NW,315,8.3,9.4,64,0.00,,,0.00,WUHU216HW,2013-11-24 13:37:00,
2013-11-24 08:42:00,14.6,4.9,30.08,NNW,338,4.7,8.3,65,0.00,,,0.00,WUHU216HW,2013-11-24 13:42:00,
2013-11-24 08:47:00,14.8,4.4,30.08,NW,315,5.8,14.3,63,0.00,,,0.00,WUHU216HW,2013-11-24 13:47:00,
2013-11-24 08:52:00,14.6,4.2,30.09,WNW,293,12.1,14.3,63,0.00,,,0.00,WUHU216HW,2013-11-24 13:52:00,
2013-11-24 08:57:00,14.6,4.6,30.09,North,0,6.0,14.8,64,0.00,,,0.00,WUHU216HW,2013-11-24 13:57:00,
2013-11-24 09:02:00,14.6,4.2,30.09,NNW,338,8.5,14.8,63,0.00,,,0.00,WUHU216HW,2013-11-24 14:02:00,
2013-11-24 09:07:00,14.8,4.1,30.09,NNW,338,7.4,11.4,62,0.00,,,0.00,WUHU216HW,2013-11-24 14:07:00,
2013-11-24 09:12:00,14.8,4.1,30.09,NNE,23,4.3,12.8,62,0.00,,,0.00,WUHU216HW,2013-11-24 14:12:00,
2013-11-24 09:17:00,14.8,4.1,30.09,North,0,5.4,12.8,62,0.00,,,0.00,WUHU216HW,2013-11-24 14:17:00,
2013-11-24 09:22:00,14.9,4.2,30.10,WNW,293,3.4,12.8,62,0.00,,,0.00,WUHU216HW,2013-11-24 14:22:00,
2013-11-24 09:27:00,15.1,4.3,30.10,NNW,338,6.0,11.4,62,0.00,,,0.00,WUHU216HW,2013-11-24 14:27:00,
2013-11-24 09:32:00,15.3,4.5,30.10,NNW,338,3.1,15.2,62,0.00,,,0.00,WUHU216HW,2013-11-24 14:32:00,
2013-11-24 09:37:00,15.5,4.7,30.10,NNW,338,9.8,15.2,62,0.00,,,0.00,WUHU216HW,2013-11-24 14:37:00,
2013-11-24 09:42:00,15.5,4.3,30.10,WNW,293,5.8,13.9,61,0.00,,,0.00,WUHU216HW,2013-11-24 14:42:00,
2013-11-24 09:47:00,15.5,4.3,30.10,NW,315,6.7,13.9,61,0.00,,,0.00,WUHU216HW,2013-11-24 14:47:00,
2013-11-24 09:52:00,15.8,5.1,30.10,WNW,293,2.7,10.5,62,0.00,,,0.00,WUHU216HW,2013-11-24 14:52:00,
2013-11-24 09:57:00,16.0,5.2,30.11,NNW,338,4.7,10.5,62,0.00,,,0.00,WUHU216HW,2013-11-24 14:57:00,
2013-11-24 10:02:00,16.6,5.4,30.11,NW,315,9.8,9.8,61,0.00,,,0.00,WUHU216HW,2013-11-24 15:02:00,
2013-11-24 10:07:00,17.1,6.0,30.11,NW,315,3.4,13.9,61,0.00,,,0.00,WUHU216HW,2013-11-24 15:07:00,
2013-11-24 10:12:00,17.5,5.1,30.11,NNW,338,15.0,15.0,58,0.00,,,0.00,WUHU216HW,2013-11-24 15:12:00,
2013-11-24 10:17:00,17.8,5.1,30.11,NNW,338,2.9,15.0,57,0.00,,,0.00,WUHU216HW,2013-11-24 15:17:00,
2013-11-24 10:22:00,18.4,5.6,30.10,North,0,8.3,15.0,57,0.00,,,0.00,WUHU216HW,2013-11-24 15:22:00,
2013-11-24 10:27:00,18.2,4.6,30.11,NW,315,2.5,9.2,55,0.00,,,0.00,WUHU216HW,2013-11-24 15:27:00,
2013-11-24 10:32:00,18.4,5.2,30.11,NNW,338,2.5,9.4,56,0.00,,,0.00,WUHU216HW,2013-11-24 15:32:00,
2013-11-24 10:37:00,18.2,5.4,30.11,NNW,338,3.6,9.4,57,0.00,,,0.00,WUHU216HW,2013-11-24 15:37:00,
2013-11-24 10:42:00,18.4,5.2,30.12,WNW,293,7.8,9.4,56,0.00,,,0.00,WUHU216HW,2013-11-24 15:42:00,
2013-11-24 10:47:00,18.9,5.3,30.11,WNW,293,9.6,9.6,55,0.00,,,0.00,WUHU216HW,2013-11-24 15:47:00,
2013-11-24 10:52:00,19.3,6.8,30.11,NNW,338,4.0,9.6,58,0.00,,,0.00,WUHU216HW,2013-11-24 15:52:00,
2013-11-24 10:57:00,20.0,6.3,30.11,WNW,293,7.8,9.6,55,0.00,,,0.00,WUHU216HW,2013-11-24 15:57:00,
2013-11-24 11:02:00,20.3,6.7,30.11,NNW,338,5.6,9.8,55,0.00,,,0.00,WUHU216HW,2013-11-24 16:02:00,
2013-11-24 11:07:00,20.0,5.9,30.11,NW,315,4.7,9.8,54,0.00,,,0.00,WUHU216HW,2013-11-24 16:07:00,
2013-11-24 11:12:00,19.8,5.7,30.11,NW,315,5.4,10.1,54,0.00,,,0.00,WUHU216HW,2013-11-24 16:12:00,
2013-11-24 11:17:00,19.8,6.1,30.11,ENE,68,1.3,10.1,55,0.00,,,0.00,WUHU216HW,2013-11-24 16:17:00,
2013-11-24 11:22:00,20.2,6.5,30.10,NW,315,4.5,7.6,55,0.00,,,0.00,WUHU216HW,2013-11-24 16:22:00,
2013-11-24 11:27:00,20.2,6.5,30.10,NNW,338,5.4,9.8,55,0.00,,,0.00,WUHU216HW,2013-11-24 16:27:00,
2013-11-24 11:32:00,20.5,6.8,30.10,NW,315,6.0,9.8,55,0.00,,,0.00,WUHU216HW,2013-11-24 16:32:00,
2013-11-24 11:37:00,20.5,5.9,30.10,NNW,338,2.7,7.6,53,0.00,,,0.00,WUHU216HW,2013-11-24 16:37:00,
2013-11-24 11:42:00,20.5,5.9,30.10,NW,315,4.3,7.8,53,0.00,,,0.00,WUHU216HW,2013-11-24 16:42:00,
2013-11-24 11:47:00,20.5,6.4,30.09,NE,45,0.7,7.8,54,0.00,,,0.00,WUHU216HW,2013-11-24 16:47:00,
2013-11-24 11:52:00,20.5,5.9,30.09,NNW,338,6.9,6.9,53,0.00,,,0.00,WUHU216HW,2013-11-24 16:52:00,
2013-11-24 11:57:00,20.7,6.9,30.09,WNW,293,3.4,9.8,55,0.00,,,0.00,WUHU216HW,2013-11-24 16:57:00,
2013-11-24 12:02:00,21.2,7.5,30.09,ENE,68,2.7,9.8,55,0.00,,,0.00,WUHU216HW,2013-11-24 17:02:00,
2013-11-24 12:07:00,21.4,6.9,30.08,NNW,338,2.5,9.8,53,0.00,,,0.00,WUHU216HW,2013-11-24 17:07:00,
2013-11-24 12:12:00,22.0,6.9,30.08,NW,315,1.6,9.8,52,0.00,,,0.00,WUHU216HW,2013-11-24 17:12:00,
2013-11-24 12:17:00,22.0,5.1,30.08,North,0,3.1,5.1,48,0.00,,,0.00,WUHU216HW,2013-11-24 17:17:00,
2013-11-24 12:22:00,21.8,5.0,30.08,NW,315,7.6,8.9,48,0.00,,,0.00,WUHU216HW,2013-11-24 17:22:00,
2013-11-24 12:27:00,22.0,6.6,30.08,NW,315,5.6,8.9,51,0.00,,,0.00,WUHU216HW,2013-11-24 17:27:00,
2013-11-24 12:32:00,22.0,5.7,30.09,NNW,338,4.5,7.8,49,0.00,,,0.00,WUHU216HW,2013-11-24 17:32:00,
2013-11-24 12:37:00,22.0,6.1,30.08,NNW,338,4.9,7.8,50,0.00,,,0.00,WUHU216HW,2013-11-24 17:37:00,
2013-11-24 12:42:00,22.0,6.1,30.08,NNW,338,4.7,8.1,50,0.00,,,0.00,WUHU216HW,2013-11-24 17:42:00,
2013-11-24 12:47:00,22.0,6.9,30.07,North,0,6.5,8.7,52,0.00,,,0.00,WUHU216HW,2013-11-24 17:47:00,
2013-11-24 12:52:00,22.0,5.7,30.07,NW,315,6.3,9.8,49,0.00,,,0.00,WUHU216HW,2013-11-24 17:52:00,
2013-11-24 12:57:00,21.6,5.8,30.07,NNW,338,1.8,9.8,50,0.00,,,0.00,WUHU216HW,2013-11-24 17:57:00,
2013-11-24 13:02:00,22.0,6.1,30.07,NW,315,4.0,6.7,50,0.00,,,0.00,WUHU216HW,2013-11-24 18:02:00,
2013-11-24 13:07:00,22.0,5.1,30.07,North,0,3.6,8.9,48,0.00,,,0.00,WUHU216HW,2013-11-24 18:07:00,
2013-11-24 13:12:00,22.7,6.8,30.07,NNW,338,4.7,10.3,50,0.00,,,0.00,WUHU216HW,2013-11-24 18:12:00,
2013-11-24 13:17:00,22.9,6.6,30.07,WNW,293,6.3,10.3,49,0.00,,,0.00,WUHU216HW,2013-11-24 18:17:00,
2013-11-24 13:22:00,22.7,5.9,30.07,NNW,338,0.9,7.6,48,0.00,,,0.00,WUHU216HW,2013-11-24 18:22:00,
2013-11-24 13:27:00,22.1,5.9,30.07,NNW,338,6.0,7.6,49,0.00,,,0.00,WUHU216HW,2013-11-24 18:27:00,
2013-11-24 13:32:00,22.0,5.7,30.07,WNW,293,1.1,6.9,49,0.00,,,0.00,WUHU216HW,2013-11-24 18:32:00,
2013-11-24 13:37:00,22.0,5.7,30.07,NNW,338,5.1,7.6,49,0.00,,,0.00,WUHU216HW,2013-11-24 18:37:00,
2013-11-24 13:42:00,22.0,5.7,30.07,NW,315,6.7,9.2,49,0.00,,,0.00,WUHU216HW,2013-11-24 18:42:00,
2013-11-24 13:47:00,22.0,5.1,30.07,North,0,1.3,9.2,48,0.00,,,0.00,WUHU216HW,2013-11-24 18:47:00,
2013-11-24 13:52:00,22.0,5.1,30.07,NW,315,10.1,10.1,48,0.00,,,0.00,WUHU216HW,2013-11-24 18:52:00,
2013-11-24 13:57:00,21.8,5.0,30.07,NW,315,8.5,10.1,48,0.00,,,0.00,WUHU216HW,2013-11-24 18:57:00,
2013-11-24 14:02:00,21.8,4.5,30.07,NNW,338,3.6,10.1,47,0.00,,,0.00,WUHU216HW,2013-11-24 19:02:00,
2013-11-24 14:07:00,21.8,5.5,30.07,NNE,23,0.7,8.5,49,0.00,,,0.00,WUHU216HW,2013-11-24 19:07:00,
2013-11-24 14:14:00,21.8,5.5,30.07,NNW,338,3.1,7.4,49,0.00,,,0.00,WUHU216HW,2013-11-24 19:14:00,
2013-11-24 14:19:00,22.1,6.3,30.07,NW,315,0.4,4.0,50,0.00,,,0.00,WUHU216HW,2013-11-24 19:19:00,
2013-11-24 14:24:00,22.1,6.8,30.07,WNW,293,6.0,6.0,51,0.00,,,0.00,WUHU216HW,2013-11-24 19:24:00,
2013-11-24 14:29:00,22.5,7.0,30.07,NW,315,6.9,7.4,51,0.00,,,0.00,WUHU216HW,2013-11-24 19:29:00,
2013-11-24 14:34:00,22.3,6.0,30.07,NNW,338,3.4,8.5,49,0.00,,,0.00,WUHU216HW,2013-11-24 19:34:00,
2013-11-24 14:39:00,22.3,6.5,30.07,NNW,338,5.4,8.5,50,0.00,,,0.00,WUHU216HW,2013-11-24 19:39:00,
2013-11-24 14:44:00,22.3,6.8,30.07,NNW,338,5.4,6.9,51,0.00,,,0.00,WUHU216HW,2013-11-24 19:44:00,
2013-11-24 14:49:00,22.3,7.7,30.07,WNW,293,5.1,6.9,53,0.00,,,0.00,WUHU216HW,2013-11-24 19:49:00,
2013-11-24 14:54:00,22.5,7.8,30.07,WNW,293,4.0,6.3,53,0.00,,,0.00,WUHU216HW,2013-11-24 19:54:00,
2013-11-24 14:59:00,22.7,8.0,30.07,WNW,293,1.1,6.3,53,0.00,,,0.00,WUHU216HW,2013-11-24 19:59:00,
2013-11-24 15:04:00,22.7,8.5,30.07,WNW,293,4.7,5.8,54,0.00,,,0.00,WUHU216HW,2013-11-24 20:04:00,
2013-11-24 15:09:00,22.7,7.2,30.07,WNW,293,3.4,7.8,51,0.00,,,0.00,WUHU216HW,2013-11-24 20:09:00,
2013-11-24 15:14:00,22.5,6.7,30.07,NNW,338,6.3,7.8,50,0.00,,,0.00,WUHU216HW,2013-11-24 20:14:00,
2013-11-24 15:19:00,22.1,5.9,30.08,North,0,5.6,8.9,49,0.00,,,0.00,WUHU216HW,2013-11-24 20:19:00,
2013-11-24 15:24:00,22.0,6.1,30.08,NNW,338,2.7,8.9,50,0.00,,,0.00,WUHU216HW,2013-11-24 20:24:00,
2013-11-24 15:29:00,22.0,6.9,30.08,NW,315,5.1,5.6,52,0.00,,,0.00,WUHU216HW,2013-11-24 20:29:00,
2013-11-24 15:34:00,22.1,7.1,30.08,NNW,338,3.4,6.3,52,0.00,,,0.00,WUHU216HW,2013-11-24 20:34:00,
2013-11-24 15:39:00,22.5,7.0,30.09,WNW,293,1.6,6.3,51,0.00,,,0.00,WUHU216HW,2013-11-24 20:39:00,
2013-11-24 15:44:00,22.1,7.1,30.09,WNW,293,2.7,4.7,52,0.00,,,0.00,WUHU216HW,2013-11-24 20:44:00,
2013-11-24 15:49:00,22.3,6.5,30.09,NNW,338,3.8,4.3,50,0.00,,,0.00,WUHU216HW,2013-11-24 20:49:00,
2013-11-24 15:54:00,22.1,6.3,30.09,NW,315,6.3,6.3,50,0.00,,,0.00,WUHU216HW,2013-11-24 20:54:00,
2013-11-24 15:59:00,21.8,5.5,30.09,NNW,338,4.0,8.5,49,0.00,,,0.00,WUHU216HW,2013-11-24 20:59:00,
2013-11-24 16:04:00,21.4,5.6,30.09,WSW,248,1.8,8.5,50,0.00,,,0.00,WUHU216HW,2013-11-24 21:04:00,
2013-11-24 16:09:00,21.2,5.4,30.09,WNW,293,3.1,7.4,50,0.00,,,0.00,WUHU216HW,2013-11-24 21:09:00,
2013-11-24 16:14:00,21.2,5.9,30.10,NW,315,4.7,7.4,51,0.00,,,0.00,WUHU216HW,2013-11-24 21:14:00,
2013-11-24 16:19:00,21.1,6.0,30.10,NNW,338,2.5,4.9,52,0.00,,,0.00,WUHU216HW,2013-11-24 21:19:00,
2013-11-24 16:24:00,21.2,6.2,30.10,NNW,338,2.2,4.7,52,0.00,,,0.00,WUHU216HW,2013-11-24 21:24:00,
2013-11-24 16:29:00,21.2,6.7,30.10,NW,315,2.9,3.4,53,0.00,,,0.00,WUHU216HW,2013-11-24 21:29:00,
2013-11-24 16:34:00,21.1,6.0,30.10,NNW,338,0.4,3.4,52,0.00,,,0.00,WUHU216HW,2013-11-24 21:34:00,
2013-11-24 16:39:00,20.9,5.5,30.10,NNW,338,0.4,3.4,51,0.00,,,0.00,WUHU216HW,2013-11-24 21:39:00,
2013-11-24 16:44:00,20.7,5.8,30.10,WNW,293,0.0,2.9,52,0.00,,,0.00,WUHU216HW,2013-11-24 21:44:00,
2013-11-24 16:49:00,20.5,5.9,30.10,NNW,338,0.9,2.5,53,0.00,,,0.00,WUHU216HW,2013-11-24 21:49:00,
2013-11-24 16:54:00,20.3,5.8,30.11,NNW,338,4.0,5.6,53,0.00,,,0.00,WUHU216HW,2013-11-24 21:54:00,
2013-11-24 16:59:00,20.0,5.5,30.11,NNW,338,2.2,5.6,53,0.00,,,0.00,WUHU216HW,2013-11-24 21:59:00,
2013-11-24 17:04:00,19.8,5.7,30.11,NW,315,1.1,4.7,54,0.00,,,0.00,WUHU216HW,2013-11-24 22:04:00,
2013-11-24 17:09:00,19.6,6.0,30.11,NNW,338,0.4,3.1,55,0.00,,,0.00,WUHU216HW,2013-11-24 22:09:00,
2013-11-24 17:14:00,19.4,5.8,30.11,NNW,338,0.2,4.0,55,0.00,,,0.00,WUHU216HW,2013-11-24 22:14:00,
2013-11-24 17:19:00,19.4,5.8,30.11,NNW,338,2.5,4.0,55,0.00,,,0.00,WUHU216HW,2013-11-24 22:19:00,
2013-11-24 17:24:00,19.3,6.0,30.11,NNW,338,3.6,3.6,56,0.00,,,0.00,WUHU216HW,2013-11-24 22:24:00,
2013-11-24 17:29:00,19.1,5.9,30.12,WSW,248,0.9,3.6,56,0.00,,,0.00,WUHU216HW,2013-11-24 22:29:00,
2013-11-24 17:34:00,19.1,5.9,30.12,WNW,293,2.7,4.0,56,0.00,,,0.00,WUHU216HW,2013-11-24 22:34:00,
2013-11-24 17:39:00,19.1,5.9,30.12,NNW,338,2.7,4.0,56,0.00,,,0.00,WUHU216HW,2013-11-24 22:39:00,
2013-11-24 17:44:00,18.9,5.7,30.12,WNW,293,1.6,4.0,56,0.00,,,0.00,WUHU216HW,2013-11-24 22:44:00,
2013-11-24 17:49:00,18.7,5.5,30.12,NW,315,2.2,4.5,56,0.00,,,0.00,WUHU216HW,2013-11-24 22:49:00,
2013-11-24 17:54:00,18.7,6.3,30.13,NW,315,4.5,6.7,58,0.00,,,0.00,WUHU216HW,2013-11-24 22:54:00,
2013-11-24 17:59:00,18.9,6.0,30.13,WNW,293,2.9,7.6,57,0.00,,,0.00,WUHU216HW,2013-11-24 22:59:00,
2013-11-24 18:04:00,18.7,6.0,30.13,NNW,338,4.0,7.6,57,0.00,,,0.00,WUHU216HW,2013-11-24 23:04:00,
2013-11-24 18:09:00,18.5,5.8,30.13,NNW,338,1.1,4.0,57,0.00,,,0.00,WUHU216HW,2013-11-24 23:09:00,
2013-11-24 18:14:00,18.4,5.6,30.13,NW,315,3.4,4.0,57,0.00,,,0.00,WUHU216HW,2013-11-24 23:14:00,
2013-11-24 18:19:00,18.4,5.6,30.12,WNW,293,0.4,4.0,57,0.00,,,0.00,WUHU216HW,2013-11-24 23:19:00,
2013-11-24 18:24:00,18.4,6.4,30.13,WNW,293,0.0,3.4,59,0.00,,,0.00,WUHU216HW,2013-11-24 23:24:00,
2013-11-24 18:29:00,18.4,6.4,30.12,North,0,0.2,2.5,59,0.00,,,0.00,WUHU216HW,2013-11-24 23:29:00,
2013-11-24 18:34:00,18.0,6.0,30.12,WNW,293,2.5,4.3,59,0.00,,,0.00,WUHU216HW,2013-11-24 23:34:00,
2013-11-24 18:39:00,18.0,6.8,30.12,West,270,1.6,4.3,61,0.00,,,0.00,WUHU216HW,2013-11-24 23:39:00,
2013-11-24 18:44:00,18.0,6.5,30.12,NW,315,0.4,4.0,60,0.00,,,0.00,WUHU216HW,2013-11-24 23:44:00,
2013-11-24 18:49:00,18.0,6.5,30.12,North,0,0.4,2.0,60,0.00,,,0.00,WUHU216HW,2013-11-24 23:49:00,
2013-11-24 18:54:00,17.8,6.3,30.12,NW,315,2.9,2.9,60,0.00,,,0.00,WUHU216HW,2013-11-24 23:54:00,
2013-11-24 18:59:00,17.8,6.3,30.12,NNW,338,0.2,2.9,60,0.00,,,0.00,WUHU216HW,2013-11-24 23:59:00,
2013-11-24 19:04:00,17.6,6.1,30.12,NNW,338,0.0,2.2,60,0.00,,,0.00,WUHU216HW,2013-11-25 00:04:00,
2013-11-24 19:09:00,17.5,5.9,30.12,NNW,338,0.0,1.1,60,0.00,,,0.00,WUHU216HW,2013-11-25 00:09:00,
2013-11-24 19:14:00,17.3,5.8,30.12,NNW,338,0.0,1.1,60,0.00,,,0.00,WUHU216HW,2013-11-25 00:14:00,
2013-11-24 19:19:00,17.3,6.1,30.12,North,0,0.0,1.8,61,0.00,,,0.00,WUHU216HW,2013-11-25 00:19:00,
2013-11-24 19:24:00,16.9,5.8,30.12,North,0,0.0,1.8,61,0.00,,,0.00,WUHU216HW,2013-11-25 00:24:00,
2013-11-24 19:29:00,16.9,5.8,30.12,NNE,23,0.0,0.4,61,0.00,,,0.00,WUHU216HW,2013-11-25 00:29:00,
2013-11-24 19:34:00,16.7,5.6,30.12,NNE,23,0.0,0.4,61,0.00,,,0.00,WUHU216HW,2013-11-25 00:34:00,
2013-11-24 19:39:00,16.6,5.4,30.12,NNE,23,0.0,0.4,61,0.00,,,0.00,WUHU216HW,2013-11-25 00:39:00,
2013-11-24 19:44:00,16.4,5.2,30.12,NNE,23,0.0,0.9,61,0.00,,,0.00,WUHU216HW,2013-11-25 00:44:00,
2013-11-24 19:49:00,16.4,5.2,30.12,NNE,23,0.0,0.9,61,0.00,,,0.00,WUHU216HW,2013-11-25 00:49:00,
2013-11-24 19:54:00,16.6,5.8,30.12,NNE,23,0.0,0.7,62,0.00,,,0.00,WUHU216HW,2013-11-25 00:54:00,
2013-11-24 19:59:00,16.4,5.6,30.12,NNE,23,0.0,0.2,62,0.00,,,0.00,WUHU216HW,2013-11-25 00:59:00,
2013-11-24 20:04:00,16.4,5.9,30.13,NNW,338,0.4,2.2,63,0.00,,,0.00,WUHU216HW,2013-11-25 01:04:00,
2013-11-24 20:09:00,16.6,6.0,30.13,NNE,23,0.0,4.7,63,0.00,,,0.00,WUHU216HW,2013-11-25 01:09:00,
2013-11-24 20:14:00,16.7,6.0,30.13,North,0,0.4,4.7,62,0.00,,,0.00,WUHU216HW,2013-11-25 01:14:00,
2013-11-24 20:19:00,16.7,6.2,30.13,West,270,0.4,1.1,63,0.00,,,0.00,WUHU216HW,2013-11-25 01:19:00,
2013-11-24 20:24:00,16.7,6.0,30.13,East,90,0.4,1.1,62,0.00,,,0.00,WUHU216HW,2013-11-25 01:24:00,
2013-11-24 20:29:00,16.7,6.0,30.13,North,0,0.0,4.0,62,0.00,,,0.00,WUHU216HW,2013-11-25 01:29:00,
2013-11-24 20:34:00,16.7,6.0,30.13,North,0,2.0,4.0,62,0.00,,,0.00,WUHU216HW,2013-11-25 01:34:00,
2013-11-24 20:39:00,16.7,6.0,30.14,NNW,338,0.0,2.9,62,0.00,,,0.00,WUHU216HW,2013-11-25 01:39:00,
2013-11-24 20:44:00,16.7,6.0,30.14,NNW,338,0.0,2.2,62,0.00,,,0.00,WUHU216HW,2013-11-25 01:44:00,
2013-11-24 20:49:00,16.6,5.8,30.13,NNW,338,0.0,2.2,62,0.00,,,0.00,WUHU216HW,2013-11-25 01:49:00,
2013-11-24 20:54:00,16.4,5.6,30.13,SW,225,0.0,2.0,62,0.00,,,0.00,WUHU216HW,2013-11-25 01:54:00,
2013-11-24 20:59:00,16.2,5.7,30.13,SW,225,0.0,2.0,63,0.00,,,0.00,WUHU216HW,2013-11-25 01:59:00,
2013-11-24 21:04:00,16.2,5.4,30.13,SW,225,0.0,0.0,62,0.00,,,0.00,WUHU216HW,2013-11-25 02:04:00,
2013-11-24 21:09:00,16.0,5.5,30.13,South,180,0.0,1.6,63,0.00,,,0.00,WUHU216HW,2013-11-25 02:09:00,
2013-11-24 21:14:00,16.0,5.5,30.13,South,180,0.0,1.6,63,0.00,,,0.00,WUHU216HW,2013-11-25 02:14:00,
2013-11-24 21:19:00,15.7,5.5,30.13,South,180,0.0,0.0,64,0.00,,,0.00,WUHU216HW,2013-11-25 02:19:00,
2013-11-24 21:24:00,15.5,5.4,30.14,South,180,0.0,0.0,64,0.00,,,0.00,WUHU216HW,2013-11-25 02:24:00,
2013-11-24 21:29:00,15.5,5.4,30.14,SSW,203,0.0,0.2,64,0.00,,,0.00,WUHU216HW,2013-11-25 02:29:00,
2013-11-24 21:34:00,15.5,5.4,30.14,SSW,203,0.0,0.2,64,0.00,,,0.00,WUHU216HW,2013-11-25 02:34:00,
2013-11-24 21:39:00,15.3,5.6,30.13,NNW,338,0.7,1.8,65,0.00,,,0.00,WUHU216HW,2013-11-25 02:39:00,
2013-11-24 21:44:00,15.1,5.4,30.13,NNE,23,0.0,1.8,65,0.00,,,0.00,WUHU216HW,2013-11-25 02:44:00,
2013-11-24 21:49:00,15.1,5.4,30.13,NNE,23,0.0,0.7,65,0.00,,,0.00,WUHU216HW,2013-11-25 02:49:00,
2013-11-24 21:54:00,14.9,5.2,30.14,NNE,23,0.0,0.0,65,0.00,,,0.00,WUHU216HW,2013-11-25 02:54:00,
2013-11-24 21:59:00,14.9,5.2,30.14,NNE,23,0.0,0.0,65,0.00,,,0.00,WUHU216HW,2013-11-25 02:59:00,
2013-11-24 22:04:00,14.8,5.0,30.13,NNW,338,0.4,1.3,65,0.00,,,0.00,WUHU216HW,2013-11-25 03:04:00,
2013-11-24 22:09:00,14.8,5.0,30.13,NNW,338,0.0,1.3,65,0.00,,,0.00,WUHU216HW,2013-11-25 03:09:00,
2013-11-24 22:14:00,14.6,4.9,30.13,NNW,338,0.0,0.4,65,0.00,,,0.00,WUHU216HW,2013-11-25 03:14:00,
2013-11-24 22:19:00,14.4,5.0,30.13,NNW,338,0.0,0.4,66,0.00,,,0.00,WUHU216HW,2013-11-25 03:19:00,
2013-11-24 22:24:00,14.4,5.0,30.12,NNW,338,0.0,0.4,66,0.00,,,0.00,WUHU216HW,2013-11-25 03:24:00,
2013-11-24 22:29:00,14.2,5.2,30.12,NNW,338,0.0,0.2,67,0.00,,,0.00,WUHU216HW,2013-11-25 03:29:00,
2013-11-24 22:34:00,14.2,5.2,30.12,NNW,338,0.0,0.2,67,0.00,,,0.00,WUHU216HW,2013-11-25 03:34:00,
2013-11-24 22:39:00,14.2,5.2,30.12,NNE,23,0.0,0.2,67,0.00,,,0.00,WUHU216HW,2013-11-25 03:39:00,
2013-11-24 22:44:00,14.0,5.1,30.12,NNE,23,0.0,0.2,67,0.00,,,0.00,WUHU216HW,2013-11-25 03:44:00,
2013-11-24 22:49:00,14.0,5.4,30.12,NW,315,1.1,1.1,68,0.00,,,0.00,WUHU216HW,2013-11-25 03:49:00,
2013-11-24 22:54:00,14.4,5.4,30.12,NNW,338,0.0,3.6,67,0.00,,,0.00,WUHU216HW,2013-11-25 03:54:00,
2013-11-24 22:59:00,14.8,6.1,30.12,NNW,338,0.0,3.6,68,0.00,,,0.00,WUHU216HW,2013-11-25 03:59:00,
2013-11-24 23:04:00,14.8,6.1,30.12,NNW,338,0.0,0.4,68,0.00,,,0.00,WUHU216HW,2013-11-25 04:04:00,
2013-11-24 23:09:00,14.8,5.8,30.12,NNW,338,0.0,0.0,67,0.00,,,0.00,WUHU216HW,2013-11-25 04:09:00,
2013-11-24 23:14:00,14.6,6.0,30.12,NNE,23,0.0,0.4,68,0.00,,,0.00,WUHU216HW,2013-11-25 04:14:00,
2013-11-24 23:19:00,14.4,5.4,30.12,NNE,23,0.0,0.4,67,0.00,,,0.00,WUHU216HW,2013-11-25 04:19:00,
2013-11-24 23:24:00,14.4,5.8,30.12,NNE,23,0.0,0.0,68,0.00,,,0.00,WUHU216HW,2013-11-25 04:24:00,
2013-11-24 23:29:00,14.2,5.6,30.12,SSE,158,0.4,1.1,68,0.00,,,0.00,WUHU216HW,2013-11-25 04:29:00,
2013-11-24 23:34:00,14.2,5.6,30.12,SSE,158,0.2,1.1,68,0.00,,,0.00,WUHU216HW,2013-11-25 04:34:00,
2013-11-24 23:39:00,14.2,5.6,30.12,SSE,158,0.0,0.4,68,0.00,,,0.00,WUHU216HW,2013-11-25 04:39:00,
2013-11-24 23:44:00,14.0,5.4,30.12,SSE,158,0.0,0.2,68,0.00,,,0.00,WUHU216HW,2013-11-25 04:44:00,
2013-11-24 23:49:00,14.0,5.4,30.12,SSE,158,0.0,0.0,68,0.00,,,0.00,WUHU216HW,2013-11-25 04:49:00,
2013-11-24 23:54:00,14.0,5.4,30.12,SSE,158,0.0,0.0,68,0.00,,,0.00,WUHU216HW,2013-11-25 04:54:00,
2013-11-24 23:59:00,14.0,5.4,30.12,SSE,158,0.0,0.0,68,0.00,,,0.00,WUHU216HW,2013-11-25 04:59:00,